createdAt,value
2023-04-02T00:00:08.350Z,94274.00
2023-04-02T00:01:08.358Z,94274.00
2023-04-02T00:02:08.362Z,94274.00
2023-04-02T00:03:08.466Z,94276.00
2023-04-02T00:04:08.391Z,94276.00
2023-04-02T00:05:08.330Z,94276.00
2023-04-02T00:06:08.320Z,94274.00
2023-04-02T00:07:08.381Z,94276.00
2023-04-02T00:08:08.336Z,94276.00
2023-04-02T00:09:08.374Z,94276.00
2023-04-02T00:10:08.344Z,94276.00
2023-04-02T00:11:08.350Z,94278.00
2023-04-02T00:12:08.354Z,94278.00
2023-04-02T00:13:08.329Z,94278.00
2023-04-02T00:14:08.350Z,94278.00
2023-04-02T00:15:08.341Z,94280.00
2023-04-02T00:16:08.462Z,94282.00
2023-04-02T00:17:08.334Z,94282.00
2023-04-02T00:18:08.359Z,94282.00
2023-04-02T00:19:08.337Z,94284.00
2023-04-02T00:20:08.343Z,94284.00
2023-04-02T00:21:08.369Z,94284.00
2023-04-02T00:22:08.394Z,94284.00
2023-04-02T00:23:08.350Z,94280.00
2023-04-02T00:24:08.338Z,94284.00
2023-04-02T00:25:08.341Z,94284.00
2023-04-02T00:26:08.379Z,94282.00
2023-04-02T00:27:08.396Z,94284.00
2023-04-02T00:28:08.404Z,94284.00
2023-04-02T00:29:08.414Z,94284.00
2023-04-02T00:30:08.403Z,94282.00
2023-04-02T00:31:08.403Z,94284.00
2023-04-02T00:32:08.439Z,94284.00
2023-04-02T00:33:08.468Z,94286.00
2023-04-02T00:34:08.433Z,94284.00
2023-04-02T00:35:08.428Z,94286.00
2023-04-02T00:36:08.436Z,94284.00
2023-04-02T00:37:08.435Z,94289.00
2023-04-02T00:38:08.433Z,94287.00
2023-04-02T00:39:08.448Z,94289.00
2023-04-02T00:40:08.433Z,94289.00
2023-04-02T00:41:08.444Z,94287.00
2023-04-02T00:42:08.477Z,94287.00
2023-04-02T00:43:08.467Z,94286.00
2023-04-02T00:44:08.482Z,94286.00
2023-04-02T00:45:08.489Z,94286.00
2023-04-02T00:46:08.560Z,94284.00
2023-04-02T00:47:08.524Z,94284.00
2023-04-02T00:48:08.533Z,94282.00
2023-04-02T00:49:08.507Z,94280.00
2023-04-02T00:50:08.529Z,94282.00
2023-04-02T00:51:08.531Z,94280.00
2023-04-02T00:52:08.542Z,94280.00
2023-04-02T00:53:08.564Z,94278.00
2023-04-02T00:54:08.566Z,94282.00
2023-04-02T00:55:08.574Z,94284.00
2023-04-02T00:56:08.543Z,94280.00
2023-04-02T00:57:08.620Z,94280.00
2023-04-02T00:58:08.597Z,94280.00
2023-04-02T00:59:08.595Z,94282.00
2023-04-02T01:00:08.623Z,94282.00
2023-04-02T01:01:08.697Z,94282.00
2023-04-02T01:02:08.632Z,94278.00
2023-04-02T01:03:08.692Z,94280.00
2023-04-02T01:04:08.621Z,94282.00
2023-04-02T01:05:08.641Z,94282.00
2023-04-02T01:06:08.663Z,94282.00
2023-04-02T01:07:08.671Z,94282.00
2023-04-02T01:08:08.664Z,94284.00
2023-04-02T01:09:08.646Z,94287.00
2023-04-02T01:10:08.680Z,94284.00
2023-04-02T01:11:08.664Z,94286.00
2023-04-02T01:12:08.728Z,94286.00
2023-04-02T01:13:08.734Z,94287.00
2023-04-02T01:14:08.725Z,94289.00
2023-04-02T01:15:08.731Z,94291.00
2023-04-02T01:16:08.806Z,94291.00
2023-04-02T01:17:08.774Z,94291.00
2023-04-02T01:18:08.784Z,94291.00
2023-04-02T01:19:08.801Z,94291.00
2023-04-02T01:20:08.805Z,94291.00
2023-04-02T01:21:08.785Z,94293.00
2023-04-02T01:22:08.851Z,94293.00
2023-04-02T01:23:08.819Z,94293.00
2023-04-02T01:24:08.863Z,94291.00
2023-04-02T01:25:08.831Z,94293.00
2023-04-02T01:26:08.840Z,94291.00
2023-04-02T01:27:08.846Z,94295.00
2023-04-02T01:28:08.857Z,94295.00
2023-04-02T01:29:08.894Z,94297.00
2023-04-02T01:30:08.870Z,94297.00
2023-04-02T01:31:08.934Z,94295.00
2023-04-02T01:32:08.902Z,94291.00
2023-04-02T01:33:08.944Z,94291.00
2023-04-02T01:34:08.922Z,94289.00
2023-04-02T01:35:08.934Z,94291.00
2023-04-02T01:36:09.028Z,94293.00
2023-04-02T01:37:08.969Z,94291.00
2023-04-02T01:38:08.964Z,94293.00
2023-04-02T01:39:08.981Z,94293.00
2023-04-02T01:40:09.007Z,94299.00
2023-04-02T01:41:09.013Z,94297.00
2023-04-02T01:42:09.023Z,94301.00
2023-04-02T01:43:09.066Z,94301.00
2023-04-02T01:44:09.052Z,94301.00
2023-04-02T01:45:09.087Z,94301.00
2023-04-02T01:46:09.123Z,94301.00
2023-04-02T01:47:09.089Z,94301.00
2023-04-02T01:48:09.176Z,94303.00
2023-04-02T01:49:09.149Z,94301.00
2023-04-02T01:50:09.136Z,94303.00
2023-04-02T01:51:09.703Z,94305.00
2023-04-02T01:52:09.168Z,94303.00
2023-04-02T01:53:09.156Z,94307.00
2023-04-02T01:54:09.212Z,94307.00
2023-04-02T01:55:09.221Z,94307.00
2023-04-02T01:56:09.231Z,94309.00
2023-04-02T01:57:09.303Z,94311.00
2023-04-02T01:58:09.238Z,94311.00
2023-04-02T01:59:09.247Z,94313.00
2023-04-02T02:00:09.269Z,94313.00
2023-04-02T02:01:09.329Z,94313.00
2023-04-02T02:02:09.396Z,94311.00
2023-04-02T02:03:09.321Z,94315.00
2023-04-02T02:04:09.329Z,94319.00
2023-04-02T02:05:09.330Z,94319.00
2023-04-02T02:06:09.379Z,94321.00
2023-04-02T02:07:09.361Z,94323.00
2023-04-02T02:08:09.386Z,94323.00
2023-04-02T02:09:09.396Z,94321.00
2023-04-02T02:10:09.404Z,94325.00
2023-04-02T02:11:09.399Z,94327.00
2023-04-02T02:12:09.446Z,94325.00
2023-04-02T02:13:09.432Z,94327.00
2023-04-02T02:14:09.434Z,94327.00
2023-04-02T02:15:09.477Z,94329.00
2023-04-02T02:16:09.541Z,94327.00
2023-04-02T02:17:09.517Z,94327.00
2023-04-02T02:18:09.515Z,94331.00
2023-04-02T02:19:09.488Z,94327.00
2023-04-02T02:20:09.518Z,94329.00
2023-04-02T02:21:09.572Z,94331.00
2023-04-02T02:22:09.557Z,94327.00
2023-04-02T02:23:09.587Z,94329.00
2023-04-02T02:24:09.617Z,94329.00
2023-04-02T02:25:09.584Z,94329.00
2023-04-02T02:26:09.591Z,94331.00
2023-04-02T02:27:09.641Z,94334.00
2023-04-02T02:28:09.615Z,94336.00
2023-04-02T02:29:09.616Z,94338.00
2023-04-02T02:30:09.668Z,94336.00
2023-04-02T02:31:09.689Z,94342.00
2023-04-02T02:32:09.793Z,94342.00
2023-04-02T02:33:09.718Z,94340.00
2023-04-02T02:34:09.736Z,94344.00
2023-04-02T02:35:09.724Z,94344.00
2023-04-02T02:36:09.806Z,94346.00
2023-04-02T02:37:09.781Z,94344.00
2023-04-02T02:38:09.746Z,94346.00
2023-04-02T02:39:09.793Z,94350.00
2023-04-02T02:40:09.800Z,94352.00
2023-04-02T02:41:09.810Z,94354.00
2023-04-02T02:42:10.109Z,94354.00
2023-04-02T02:43:09.830Z,94356.00
2023-04-02T02:44:09.879Z,94358.00
2023-04-02T02:45:09.876Z,94360.00
2023-04-02T02:46:09.905Z,94362.00
2023-04-02T02:47:09.912Z,94362.00
2023-04-02T02:48:09.919Z,94364.00
2023-04-02T02:49:09.938Z,94364.00
2023-04-02T02:50:09.960Z,94362.00
2023-04-02T02:51:09.954Z,94362.00
2023-04-02T02:52:09.982Z,94362.00
2023-04-02T02:53:09.984Z,94364.00
2023-04-02T02:54:10.026Z,94364.00
2023-04-02T02:55:10.035Z,94362.00
2023-04-02T02:56:10.010Z,94366.00
2023-04-02T02:57:10.113Z,94366.00
2023-04-02T02:58:10.061Z,94366.00
2023-04-02T02:59:10.078Z,94368.00
2023-04-02T03:00:10.105Z,94368.00
2023-04-02T03:01:10.161Z,94368.00
2023-04-02T03:02:10.117Z,94368.00
2023-04-02T03:03:10.187Z,94368.00
2023-04-02T03:04:10.249Z,94368.00
2023-04-02T03:05:10.150Z,94370.00
2023-04-02T03:06:10.168Z,94370.00
2023-04-02T03:07:10.175Z,94374.00
2023-04-02T03:08:10.197Z,94374.00
2023-04-02T03:09:10.203Z,94372.00
2023-04-02T03:10:10.219Z,94374.00
2023-04-02T03:11:10.245Z,94374.00
2023-04-02T03:12:10.341Z,94376.00
2023-04-02T03:13:10.278Z,94374.00
2023-04-02T03:14:10.280Z,94370.00
2023-04-02T03:15:10.287Z,94380.00
2023-04-02T03:16:10.348Z,94387.00
2023-04-02T03:17:10.301Z,94391.00
2023-04-02T03:18:10.349Z,94393.00
2023-04-02T03:19:10.362Z,94387.00
2023-04-02T03:20:10.346Z,94393.00
2023-04-02T03:21:10.358Z,94391.00
2023-04-02T03:22:10.411Z,94389.00
2023-04-02T03:23:10.404Z,94397.00
2023-04-02T03:24:10.425Z,94393.00
2023-04-02T03:25:10.448Z,94393.00
2023-04-02T03:26:10.472Z,94401.00
2023-04-02T03:27:10.463Z,94399.00
2023-04-02T03:28:10.484Z,94399.00
2023-04-02T03:29:10.553Z,94399.00
2023-04-02T03:30:10.560Z,94401.00
2023-04-02T03:31:10.628Z,94401.00
2023-04-02T03:32:10.591Z,94405.00
2023-04-02T03:33:10.622Z,94405.00
2023-04-02T03:34:10.614Z,94401.00
2023-04-02T03:35:10.636Z,94401.00
2023-04-02T03:36:10.701Z,94401.00
2023-04-02T03:37:10.671Z,94403.00
2023-04-02T03:38:10.713Z,94403.00
2023-04-02T03:39:10.742Z,94403.00
2023-04-02T03:40:10.719Z,94403.00
2023-04-02T03:41:10.729Z,94405.00
2023-04-02T03:42:10.761Z,94407.00
2023-04-02T03:43:10.797Z,94407.00
2023-04-02T03:44:10.826Z,94405.00
2023-04-02T03:45:10.824Z,94407.00
2023-04-02T03:46:10.878Z,94407.00
2023-04-02T03:47:10.853Z,94409.00
2023-04-02T03:48:10.894Z,94409.00
2023-04-02T03:49:10.919Z,94411.00
2023-04-02T03:50:10.934Z,94411.00
2023-04-02T03:51:10.918Z,94413.00
2023-04-02T03:52:10.958Z,94413.00
2023-04-02T03:53:10.974Z,94411.00
2023-04-02T03:54:11.002Z,94411.00
2023-04-02T03:55:10.996Z,94411.00
2023-04-02T03:56:11.043Z,94413.00
2023-04-02T03:57:11.073Z,94415.00
2023-04-02T03:58:11.060Z,94415.00
2023-04-02T03:59:11.067Z,94413.00
2023-04-02T04:00:11.106Z,94417.00
2023-04-02T04:01:11.103Z,94417.00
2023-04-02T04:02:11.188Z,94415.00
2023-04-02T04:03:11.255Z,94417.00
2023-04-02T04:04:11.294Z,94417.00
2023-04-02T04:05:11.779Z,94417.00
2023-04-02T04:06:11.228Z,94417.00
2023-04-02T04:07:11.229Z,94419.00
2023-04-02T04:08:11.276Z,94419.00
2023-04-02T04:09:11.296Z,94421.00
2023-04-02T04:10:11.325Z,94425.00
2023-04-02T04:11:11.348Z,94426.00
2023-04-02T04:12:11.322Z,94426.00
2023-04-02T04:13:11.377Z,94428.00
2023-04-02T04:14:11.389Z,94428.00
2023-04-02T04:15:11.429Z,94428.00
2023-04-02T04:16:11.487Z,94428.00
2023-04-02T04:17:11.475Z,94430.00
2023-04-02T04:18:11.462Z,94432.00
2023-04-02T04:19:11.484Z,94434.00
2023-04-02T04:20:11.515Z,94434.00
2023-04-02T04:21:11.539Z,94436.00
2023-04-02T04:22:11.552Z,94438.00
2023-04-02T04:23:11.590Z,94440.00
2023-04-02T04:24:11.604Z,94442.00
2023-04-02T04:25:11.637Z,94444.00
2023-04-02T04:26:11.662Z,94446.00
2023-04-02T04:27:11.642Z,94448.00
2023-04-02T04:28:11.700Z,94448.00
2023-04-02T04:29:11.727Z,94452.00
2023-04-02T04:30:11.711Z,94452.00
2023-04-02T04:31:11.735Z,94454.00
2023-04-02T04:32:11.820Z,94458.00
2023-04-02T04:33:11.781Z,94460.00
2023-04-02T04:34:11.799Z,94460.00
2023-04-02T04:35:11.829Z,94460.00
2023-04-02T04:36:11.862Z,94458.00
2023-04-02T04:37:11.866Z,94464.00
2023-04-02T04:38:11.907Z,94462.00
2023-04-02T04:39:11.898Z,94466.00
2023-04-02T04:40:11.979Z,94468.00
2023-04-02T04:41:11.951Z,94466.00
2023-04-02T04:42:11.987Z,94470.00
2023-04-02T04:43:12.016Z,94470.00
2023-04-02T04:44:12.040Z,94472.00
2023-04-02T04:45:12.044Z,94472.00
2023-04-02T04:46:12.132Z,94472.00
2023-04-02T04:47:12.094Z,94474.00
2023-04-02T04:48:12.122Z,94474.00
2023-04-02T04:49:12.176Z,94476.00
2023-04-02T04:50:12.189Z,94478.00
2023-04-02T04:51:12.209Z,94480.00
2023-04-02T04:52:12.232Z,94478.00
2023-04-02T04:53:12.247Z,94480.00
2023-04-02T04:54:12.261Z,94480.00
2023-04-02T04:55:13.869Z,94478.00
2023-04-02T04:56:19.221Z,94480.00
2023-04-02T04:57:13.362Z,94481.00
2023-04-02T04:58:12.346Z,94481.00
2023-04-02T04:59:12.373Z,94481.00
2023-04-02T05:00:12.316Z,94483.00
2023-04-02T05:01:12.336Z,94483.00
2023-04-02T05:02:12.302Z,94485.00
2023-04-02T05:03:12.297Z,94487.00
2023-04-02T05:04:12.299Z,94487.00
2023-04-02T05:05:12.302Z,94489.00
2023-04-02T05:06:12.295Z,94491.00
2023-04-02T05:07:12.316Z,94491.00
2023-04-02T05:08:12.275Z,94493.00
2023-04-02T05:09:12.291Z,94491.00
2023-04-02T05:10:12.260Z,94493.00
2023-04-02T05:11:12.262Z,94493.00
2023-04-02T05:12:12.250Z,94495.00
2023-04-02T05:13:12.246Z,94493.00
2023-04-02T05:14:12.239Z,94493.00
2023-04-02T05:15:12.230Z,94493.00
2023-04-02T05:16:12.315Z,94493.00
2023-04-02T05:17:12.259Z,94495.00
2023-04-02T05:18:12.301Z,94495.00
2023-04-02T05:19:12.316Z,94497.00
2023-04-02T05:20:12.349Z,94493.00
2023-04-02T05:21:12.337Z,94497.00
2023-04-02T05:22:12.378Z,94495.00
2023-04-02T05:23:12.385Z,94495.00
2023-04-02T05:24:12.452Z,94499.00
2023-04-02T05:25:12.470Z,94499.00
2023-04-02T05:26:12.461Z,94499.00
2023-04-02T05:27:12.514Z,94501.00
2023-04-02T05:28:12.535Z,94503.00
2023-04-02T05:29:12.561Z,94503.00
2023-04-02T05:30:12.557Z,94503.00
2023-04-02T05:31:12.581Z,94505.00
2023-04-02T05:32:12.591Z,94505.00
2023-04-02T05:33:12.647Z,94503.00
2023-04-02T05:34:12.648Z,94505.00
2023-04-02T05:35:12.634Z,94507.00
2023-04-02T05:36:12.734Z,94511.00
2023-04-02T05:37:12.669Z,94511.00
2023-04-02T05:38:12.685Z,94517.00
2023-04-02T05:39:12.741Z,94517.00
2023-04-02T05:40:12.760Z,94519.00
2023-04-02T05:41:12.803Z,94519.00
2023-04-02T05:42:12.787Z,94519.00
2023-04-02T05:43:12.809Z,94521.00
2023-04-02T05:44:12.813Z,94523.00
2023-04-02T05:45:12.848Z,94523.00
2023-04-02T05:46:12.903Z,94523.00
2023-04-02T05:47:12.921Z,94525.00
2023-04-02T05:48:12.907Z,94525.00
2023-04-02T05:49:12.980Z,94527.00
2023-04-02T05:50:12.990Z,94527.00
2023-04-02T05:51:13.022Z,94530.00
2023-04-02T05:52:13.013Z,94530.00
2023-04-02T05:53:13.036Z,94532.00
2023-04-02T05:54:13.070Z,94534.00
2023-04-02T05:55:13.127Z,94534.00
2023-04-02T05:56:13.120Z,94534.00
2023-04-02T05:57:13.193Z,94536.00
2023-04-02T05:58:29.982Z,94540.00
2023-04-02T05:59:14.190Z,94538.00
2023-04-02T06:00:13.144Z,94540.00
2023-04-02T06:01:13.153Z,94540.00
2023-04-02T06:02:13.193Z,94542.00
2023-04-02T06:03:13.154Z,94540.00
2023-04-02T06:04:13.174Z,94540.00
2023-04-02T06:05:13.107Z,94542.00
2023-04-02T06:06:14.612Z,94540.00
2023-04-02T06:07:13.096Z,94540.00
2023-04-02T06:08:13.090Z,94542.00
2023-04-02T06:09:13.826Z,94538.00
2023-04-02T06:10:13.122Z,94540.00
2023-04-02T06:11:13.078Z,94540.00
2023-04-02T06:12:13.056Z,94540.00
2023-04-02T06:13:13.058Z,94540.00
2023-04-02T06:14:13.049Z,94540.00
2023-04-02T06:15:13.058Z,94540.00
2023-04-02T06:16:13.082Z,94542.00
2023-04-02T06:17:13.050Z,94542.00
2023-04-02T06:18:13.029Z,94542.00
2023-04-02T06:19:13.004Z,94544.00
2023-04-02T06:20:13.012Z,94546.00
2023-04-02T06:21:13.045Z,94546.00
2023-04-02T06:22:13.048Z,94544.00
2023-04-02T06:23:13.079Z,94552.00
2023-04-02T06:24:13.070Z,94548.00
2023-04-02T06:25:13.076Z,94550.00
2023-04-02T06:26:13.095Z,94548.00
2023-04-02T06:27:13.091Z,94548.00
2023-04-02T06:28:13.117Z,94548.00
2023-04-02T06:29:13.148Z,94552.00
2023-04-02T06:30:13.155Z,94554.00
2023-04-02T06:31:13.191Z,94554.00
2023-04-02T06:32:13.153Z,94556.00
2023-04-02T06:33:13.155Z,94558.00
2023-04-02T06:34:13.144Z,94560.00
2023-04-02T06:35:13.192Z,94562.00
2023-04-02T06:36:13.226Z,94564.00
2023-04-02T06:37:13.229Z,94562.00
2023-04-02T06:38:13.237Z,94562.00
2023-04-02T06:39:13.224Z,94564.00
2023-04-02T06:40:13.254Z,94562.00
2023-04-02T06:41:13.223Z,94564.00
2023-04-02T06:42:13.214Z,94562.00
2023-04-02T06:43:13.245Z,94568.00
2023-04-02T06:44:13.230Z,94564.00
2023-04-02T06:45:13.258Z,94568.00
2023-04-02T06:46:13.308Z,94568.00
2023-04-02T06:47:13.272Z,94568.00
2023-04-02T06:48:13.295Z,94568.00
2023-04-02T06:49:13.290Z,94568.00
2023-04-02T06:50:13.295Z,94570.00
2023-04-02T06:51:13.255Z,94568.00
2023-04-02T06:52:13.294Z,94568.00
2023-04-02T06:53:13.319Z,94572.00
2023-04-02T06:54:13.282Z,94572.00
2023-04-02T06:55:13.325Z,94570.00
2023-04-02T06:56:13.301Z,94572.00
2023-04-02T06:57:13.324Z,94570.00
2023-04-02T06:58:13.262Z,94572.00
2023-04-02T06:59:13.292Z,94572.00
2023-04-02T07:00:13.319Z,94568.00
2023-04-02T07:01:13.406Z,94572.00
2023-04-02T07:02:13.326Z,94570.00
2023-04-02T07:03:13.331Z,94570.00
2023-04-02T07:04:13.331Z,94570.00
2023-04-02T07:05:13.447Z,94574.00
2023-04-02T07:06:13.441Z,94572.00
2023-04-02T07:07:13.470Z,94572.00
2023-04-02T07:08:13.539Z,94572.00
2023-04-02T07:09:13.610Z,94572.00
2023-04-02T07:10:13.635Z,94570.00
2023-04-02T07:11:13.719Z,94568.00
2023-04-02T07:12:13.782Z,94566.00
2023-04-02T07:13:13.840Z,94570.00
2023-04-02T07:14:13.883Z,94572.00
2023-04-02T07:15:13.897Z,94566.00
2023-04-02T07:16:14.034Z,94570.00
2023-04-02T07:17:14.019Z,94570.00
2023-04-02T07:18:14.069Z,94570.00
2023-04-02T07:19:14.112Z,94570.00
2023-04-02T07:20:14.197Z,94570.00
2023-04-02T07:21:14.226Z,94568.00
2023-04-02T07:22:14.306Z,94570.00
2023-04-02T07:23:16.451Z,94570.00
2023-04-02T07:24:14.609Z,94570.00
2023-04-02T07:25:14.614Z,94568.00
2023-04-02T07:26:14.681Z,94568.00
2023-04-02T07:27:14.722Z,94564.00
2023-04-02T07:28:14.789Z,94568.00
2023-04-02T07:29:14.839Z,94566.00
2023-04-02T07:30:14.888Z,94566.00
2023-04-02T07:31:14.970Z,94566.00
2023-04-02T07:32:14.998Z,94566.00
2023-04-02T07:33:15.053Z,94568.00
2023-04-02T07:34:15.099Z,94570.00
2023-04-02T07:35:15.131Z,94570.00
2023-04-02T07:36:15.188Z,94566.00
2023-04-02T07:37:15.204Z,94566.00
2023-04-02T07:38:15.332Z,94566.00
2023-04-02T07:39:15.295Z,94566.00
2023-04-02T07:40:15.305Z,94566.00
2023-04-02T07:41:15.857Z,94570.00
2023-04-02T07:42:15.390Z,94570.00
2023-04-02T07:43:15.460Z,94572.00
2023-04-02T07:44:15.427Z,94574.00
2023-04-02T07:45:15.451Z,94577.00
2023-04-02T07:46:15.514Z,94579.00
2023-04-02T07:47:15.505Z,94577.00
2023-04-02T07:48:15.530Z,94581.00
2023-04-02T07:49:15.543Z,94581.00
2023-04-02T07:50:15.571Z,94583.00
2023-04-02T07:51:15.576Z,94585.00
2023-04-02T07:52:15.561Z,94585.00
2023-04-02T07:53:15.612Z,94587.00
2023-04-02T07:54:15.624Z,94587.00
2023-04-02T07:55:15.637Z,94587.00
2023-04-02T07:56:15.613Z,94585.00
2023-04-02T07:57:15.636Z,94585.00
2023-04-02T07:58:15.601Z,94583.00
2023-04-02T07:59:15.616Z,94585.00
2023-04-02T08:00:15.601Z,94581.00
2023-04-02T08:01:15.584Z,94583.00
2023-04-02T08:02:15.595Z,94585.00
2023-04-02T08:03:15.770Z,94587.00
2023-04-02T08:04:15.724Z,94585.00
2023-04-02T08:05:15.599Z,94585.00
2023-04-02T08:06:15.609Z,94583.00
2023-04-02T08:07:15.618Z,94585.00
2023-04-02T08:08:15.560Z,94585.00
2023-04-02T08:09:15.565Z,94585.00
2023-04-02T08:10:15.615Z,94585.00
2023-04-02T08:11:15.601Z,94587.00
2023-04-02T08:12:15.664Z,94585.00
2023-04-02T08:13:15.649Z,94587.00
2023-04-02T08:14:15.681Z,94585.00
2023-04-02T08:15:15.748Z,94587.00
2023-04-02T08:16:15.782Z,94583.00
2023-04-02T08:17:15.840Z,94583.00
2023-04-02T08:18:15.882Z,94589.00
2023-04-02T08:19:15.982Z,94587.00
2023-04-02T08:20:16.024Z,94585.00
2023-04-02T08:21:16.688Z,94585.00
2023-04-02T08:22:16.169Z,94587.00
2023-04-02T08:23:16.241Z,94587.00
2023-04-02T08:24:16.270Z,94589.00
2023-04-02T08:25:16.347Z,94591.00
2023-04-02T08:26:16.407Z,94591.00
2023-04-02T08:27:16.449Z,94589.00
2023-04-02T08:28:16.505Z,94589.00
2023-04-02T08:29:16.593Z,94589.00
2023-04-02T08:30:16.615Z,94589.00
2023-04-02T08:31:16.738Z,94591.00
2023-04-02T08:32:16.728Z,94593.00
2023-04-02T08:33:16.811Z,94591.00
2023-04-02T08:34:16.877Z,94593.00
2023-04-02T08:35:16.915Z,94591.00
2023-04-02T08:36:17.026Z,94591.00
2023-04-02T08:37:17.025Z,94587.00
2023-04-02T08:38:17.072Z,94589.00
2023-04-02T08:39:17.114Z,94587.00
2023-04-02T08:40:17.199Z,94585.00
2023-04-02T08:41:17.288Z,94585.00
2023-04-02T08:42:17.265Z,94583.00
2023-04-02T08:43:17.287Z,94585.00
2023-04-02T08:44:17.330Z,94583.00
2023-04-02T08:46:18.451Z,94581.00
2023-04-02T08:47:17.897Z,94581.00
2023-04-02T08:48:17.367Z,94579.00
2023-04-02T08:49:17.354Z,94579.00
2023-04-02T08:50:17.387Z,94577.00
2023-04-02T08:51:17.345Z,94575.00
2023-04-02T08:52:17.351Z,94575.00
2023-04-02T08:53:17.323Z,94570.00
2023-04-02T08:54:17.304Z,94574.00
2023-04-02T08:55:17.293Z,94574.00
2023-04-02T08:56:17.314Z,94575.00
2023-04-02T08:57:17.324Z,94575.00
2023-04-02T08:58:17.299Z,94574.00
2023-04-02T08:59:17.280Z,94572.00
2023-04-02T09:00:17.253Z,94572.00
2023-04-02T09:01:17.292Z,94570.00
2023-04-02T09:02:17.249Z,94570.00
2023-04-02T09:03:17.228Z,94570.00
2023-04-02T09:04:17.281Z,94568.00
2023-04-02T09:05:17.218Z,94570.00
2023-04-02T09:06:17.234Z,94568.00
2023-04-02T09:07:17.243Z,94568.00
2023-04-02T09:08:17.218Z,94564.00
2023-04-02T09:09:17.213Z,94564.00
2023-04-02T09:10:17.278Z,94566.00
2023-04-02T09:11:17.203Z,94562.00
2023-04-02T09:12:17.182Z,94562.00
2023-04-02T09:13:17.201Z,94564.00
2023-04-02T09:14:17.203Z,94566.00
2023-04-02T09:15:17.165Z,94562.00
2023-04-02T09:16:17.225Z,94564.00
2023-04-02T09:17:17.180Z,94564.00
2023-04-02T09:18:17.180Z,94566.00
2023-04-02T09:19:17.189Z,94564.00
2023-04-02T09:20:17.244Z,94566.00
2023-04-02T09:21:17.120Z,94564.00
2023-04-02T09:22:17.136Z,94566.00
2023-04-02T09:23:17.141Z,94566.00
2023-04-02T09:24:17.144Z,94568.00
2023-04-02T09:25:17.150Z,94568.00
2023-04-02T09:26:17.109Z,94564.00
2023-04-02T09:27:17.114Z,94566.00
2023-04-02T09:28:17.094Z,94568.00
2023-04-02T09:29:17.138Z,94566.00
2023-04-02T09:30:17.141Z,94570.00
2023-04-02T09:31:17.152Z,94568.00
2023-04-02T09:32:17.160Z,94566.00
2023-04-02T09:33:17.155Z,94570.00
2023-04-02T09:34:17.162Z,94570.00
2023-04-02T09:35:25.516Z,94570.00
2023-04-02T09:36:18.229Z,94568.00
2023-04-02T09:37:17.150Z,94564.00
2023-04-02T09:38:17.149Z,94564.00
2023-04-02T09:39:17.126Z,94562.00
2023-04-02T09:40:17.135Z,94560.00
2023-04-02T09:41:17.112Z,94562.00
2023-04-02T09:42:17.114Z,94564.00
2023-04-02T09:43:17.131Z,94562.00
2023-04-02T09:44:17.096Z,94562.00
2023-04-02T09:45:17.185Z,94564.00
2023-04-02T09:46:17.151Z,94564.00
2023-04-02T09:47:17.086Z,94564.00
2023-04-02T09:48:17.088Z,94564.00
2023-04-02T09:49:17.057Z,94562.00
2023-04-02T09:50:17.073Z,94562.00
2023-04-02T09:51:17.058Z,94564.00
2023-04-02T09:52:17.046Z,94566.00
2023-04-02T09:53:17.060Z,94564.00
2023-04-02T09:54:17.046Z,94566.00
2023-04-02T09:55:17.039Z,94566.00
2023-04-02T09:56:17.012Z,94570.00
2023-04-02T09:57:17.037Z,94566.00
2023-04-02T09:58:17.022Z,94572.00
2023-04-02T09:59:17.032Z,94566.00
2023-04-02T10:01:17.054Z,94570.00
2023-04-02T10:02:16.979Z,94572.00
2023-04-02T10:03:17.010Z,94575.00
2023-04-02T10:04:17.000Z,94575.00
2023-04-02T10:05:18.877Z,94574.00
2023-04-02T10:06:17.974Z,94574.00
2023-04-02T10:07:16.949Z,94574.00
2023-04-02T10:08:16.957Z,94574.00
2023-04-02T10:09:16.936Z,94575.00
2023-04-02T10:10:16.916Z,94574.00
2023-04-02T10:11:16.934Z,94575.00
2023-04-02T10:12:16.933Z,94572.00
2023-04-02T10:13:16.912Z,94572.00
2023-04-02T10:14:16.925Z,94570.00
2023-04-02T10:15:16.905Z,94570.00
2023-04-02T10:16:16.958Z,94570.00
2023-04-02T10:17:16.959Z,94568.00
2023-04-02T10:18:16.961Z,94572.00
2023-04-02T10:19:17.018Z,94570.00
2023-04-02T10:20:17.090Z,94566.00
2023-04-02T10:21:17.088Z,94566.00
2023-04-02T10:22:17.143Z,94570.00
2023-04-02T10:23:17.203Z,94568.00
2023-04-02T10:24:17.253Z,94568.00
2023-04-02T10:25:17.308Z,94566.00
2023-04-02T10:26:17.346Z,94566.00
2023-04-02T10:27:17.477Z,94566.00
2023-04-02T10:28:17.423Z,94564.00
2023-04-02T10:29:17.494Z,94564.00
2023-04-02T10:30:17.544Z,94568.00
2023-04-02T10:31:17.681Z,94566.00
2023-04-02T10:32:17.645Z,94568.00
2023-04-02T10:33:17.739Z,94564.00
2023-04-02T10:34:17.758Z,94570.00
2023-04-02T10:35:17.778Z,94572.00
2023-04-02T10:36:17.857Z,94574.00
2023-04-02T10:37:17.863Z,94572.00
2023-04-02T10:38:17.909Z,94570.00
2023-04-02T10:39:17.963Z,94572.00
2023-04-02T10:40:18.007Z,94574.00
2023-04-02T10:41:18.046Z,94572.00
2023-04-02T10:42:18.105Z,94572.00
2023-04-02T10:43:18.138Z,94572.00
2023-04-02T10:44:20.504Z,94570.00
2023-04-02T10:45:18.170Z,94572.00
2023-04-02T10:46:18.189Z,94574.00
2023-04-02T10:47:18.155Z,94572.00
2023-04-02T10:48:18.164Z,94574.00
2023-04-02T10:49:18.122Z,94574.00
2023-04-02T10:50:18.122Z,94574.00
2023-04-02T10:51:18.155Z,94574.00
2023-04-02T10:52:18.107Z,94572.00
2023-04-02T10:53:18.102Z,94577.00
2023-04-02T10:54:18.093Z,94575.00
2023-04-02T10:55:18.105Z,94579.00
2023-04-02T10:56:18.076Z,94577.00
2023-04-02T10:57:18.141Z,94575.00
2023-04-02T10:58:18.063Z,94579.00
2023-04-02T10:59:18.046Z,94579.00
2023-04-02T11:00:18.027Z,94579.00
2023-04-02T11:01:18.089Z,94577.00
2023-04-02T11:02:18.058Z,94579.00
2023-04-02T11:03:18.102Z,94579.00
2023-04-02T11:04:18.026Z,94579.00
2023-04-02T11:05:18.055Z,94579.00
2023-04-02T11:06:18.013Z,94581.00
2023-04-02T11:07:18.009Z,94579.00
2023-04-02T11:08:17.992Z,94577.00
2023-04-02T11:09:17.980Z,94583.00
2023-04-02T11:10:17.978Z,94583.00
2023-04-02T11:11:17.977Z,94583.00
2023-04-02T11:12:17.973Z,94587.00
2023-04-02T11:13:17.985Z,94585.00
2023-04-02T11:14:17.957Z,94585.00
2023-04-02T11:15:17.969Z,94589.00
2023-04-02T11:16:17.987Z,94589.00
2023-04-02T11:17:17.942Z,94591.00
2023-04-02T11:18:17.966Z,94593.00
2023-04-02T11:19:17.927Z,94591.00
2023-04-02T11:20:17.953Z,94589.00
2023-04-02T11:21:17.908Z,94591.00
2023-04-02T11:22:17.910Z,94597.00
2023-04-02T11:23:17.935Z,94595.00
2023-04-02T11:24:17.893Z,94597.00
2023-04-02T11:25:17.904Z,94595.00
2023-04-02T11:26:17.892Z,94595.00
2023-04-02T11:27:17.897Z,94597.00
2023-04-02T11:28:17.872Z,94595.00
2023-04-02T11:29:17.854Z,94597.00
2023-04-02T11:30:17.858Z,94599.00
2023-04-02T11:31:17.879Z,94599.00
2023-04-02T11:32:17.834Z,94601.00
2023-04-02T11:33:23.589Z,94601.00
2023-04-02T11:34:18.851Z,94603.00
2023-04-02T11:35:17.831Z,94605.00
2023-04-02T11:36:17.881Z,94605.00
2023-04-02T11:37:17.800Z,94605.00
2023-04-02T11:38:17.813Z,94609.00
2023-04-02T11:39:17.880Z,94607.00
2023-04-02T11:40:17.794Z,94607.00
2023-04-02T11:41:17.776Z,94609.00
2023-04-02T11:42:17.795Z,94609.00
2023-04-02T11:43:17.828Z,94609.00
2023-04-02T11:44:17.797Z,94609.00
2023-04-02T11:45:19.570Z,94613.00
2023-04-02T11:46:17.767Z,94611.00